Nearby METAR Reports

 

KSJC - San Jose, California, USA
Distance from station: NE 9mi, 14km
Updated: Wed, 20-Jan-2021 12:53pm MST
Clear
Clear
 Wind from calm
Wind: Calm
Temperature: 63°F , 17°C
Dew Point: 21°F , -6°C
Humidity: 20%
Barometer: 30.11 inHg , 1019.6 hPa
Clouds: Clear
Visibility: 10 miles , 16 km
2021/01/20 19:53 KSJC 201953Z 00000KT 10SM CLR 17/M06 A3011 RMK AO2 SLP195 T01671061
KNUQ - Moffett Nas/Mtn, California, USA
Distance from station: N 9mi, 14km
Updated: Wed, 20-Jan-2021 12:50pm MST
Clear
Clear
 Wind from N
Wind: N 5 mph , 7 km/h
Temperature: 61°F , 16°C
Dew Point: 21°F , -6°C
Humidity: 22%
Barometer: 30.11 inHg , 1019.6 hPa
Clouds: Clear
Visibility: 10 miles , 16 km
2021/01/20 19:50 KNUQ 201950Z AUTO 35004KT 10SM CLR 16/M06 A3011 RMK AO2
 
KPAO - Palo Alto, California, USA
Distance from station: NNW 14mi, 23km
Updated: Wed, 20-Jan-2021 12:47pm MST
Clear
Clear
 Wind from N
Wind: N 5 mph , 7 km/h
Temperature: 64°F , 18°C
Dew Point: 19°F , -7°C
Humidity: 18%
Barometer: 30.12 inHg , 1020 hPa
Clouds: Clear
Visibility: 10 miles , 16 km
2021/01/20 19:47 KPAO 201947Z 36004KT 10SM SKC 18/M07 A3012
KRHV - San Jose/Reid, California, USA
Distance from station: ENE 12mi, 19km
Updated: Wed, 20-Jan-2021 12:47pm MST
Clear
Clear
 Wind from calm
Wind: Calm
Temperature: 61°F , 16°C
Dew Point: 21°F , -6°C
Humidity: 22%
Barometer: 30.12 inHg , 1020 hPa
Clouds: Clear
Visibility: 10 miles , 16 km
2021/01/20 19:47 KRHV 201947Z 00000KT 10SM SKC 16/M06 A3012
 
KOAK - Oakland, California, USA
Distance from station: NNW 31mi, 50km
Updated: Wed, 20-Jan-2021 12:53pm MST
Clear
Clear
 Wind from WNW
Wind: WNW 8 mph , 13 km/h
Temperature: 63°F , 17°C
Dew Point: 27°F , -3°C
Humidity: 25%
Barometer: 30.13 inHg , 1020.3 hPa
Clouds: Clear
Visibility: 10 miles , 16 km
2021/01/20 19:53 KOAK 201953Z 29007KT 10SM CLR 17/M03 A3013 RMK AO2 SLP203 T01671033
KSQL - San Carlos Airpo, California, USA
Distance from station: NW 21mi, 34km
Updated: Wed, 20-Jan-2021 11:47am MST
Clear
Clear
 Wind from varies
Wind: varies 3 mph , 6 km/h
Temperature: 59°F , 15°C
Dew Point: 21°F , -6°C
Humidity: 23%
Barometer: 30.16 inHg , 1021.3 hPa
Clouds: Clear
Visibility: 10 miles , 16 km
2021/01/20 18:47 KSQL 201847Z VRB03KT 10SM SKC 15/M06 A3016
 
KSFO - San Francisco, California, USA
Distance from station: NW 30mi, 49km
Updated: Wed, 20-Jan-2021 12:56pm MST
Clear
Clear
 Wind from NNE
Wind: NNE 3 mph , 6 km/h
Temperature: 61°F , 16°C
Dew Point: 43°F , 6°C
Humidity: 52%
Barometer: 30.11 inHg , 1019.6 hPa
Clouds: Clear
Visibility: 10 miles , 16 km
2021/01/20 19:56 KSFO 201956Z 02003KT 10SM CLR 16/06 A3011 RMK AO2 SLP197 T01560056
KE16 - San Martin, California, USA
Distance from station: ESE 27mi, 43km
Updated: Wed, 20-Jan-2021 12:35pm MST
Clear
Clear
 Wind from W
Wind: W 6 mph , 9 km/h
Temperature: 61°F , 16°C
Dew Point: 25°F , -4°C
Humidity: 25%
Barometer: 30.13 inHg , 1020.3 hPa
Clouds: Clear
Visibility: 10 miles , 16 km
2021/01/20 19:35 KE16 201935Z AUTO 28005KT 250V340 10SM CLR 16/M04 A3013 RMK AO2 PWINO PNO
 
KWVI - Watsonville, California, USA
Distance from station: SSE 27mi, 44km
Updated: Wed, 20-Jan-2021 12:53pm MST
Clear
Clear
 Wind from calm
Wind: Calm
Temperature: 66°F , 19°C
Dew Point: 28°F , -2°C
Humidity: 24%
Barometer: 30.09 inHg , 1019 hPa
Clouds: Clear
Visibility: 10 miles , 16 km
2021/01/20 19:53 KWVI 201953Z AUTO 00000KT 10SM CLR 19/M02 A3009 RMK AO2 SLP188 T01891017
KHAF - Half Moon Bay, California, USA
Distance from station: WNW 31mi, 50km
Updated: Wed, 20-Jan-2021 12:55pm MST
Clear
Clear
 Wind from W
Wind: W 7 mph , 11 km/h
Temperature: 64°F , 18°C
Dew Point: 25°F , -4°C
Humidity: 22%
Barometer: 30.10 inHg , 1019.3 hPa
Clouds: Clear
Visibility: 8 miles , 13 km
2021/01/20 19:55 KHAF 201955Z AUTO 26006KT 8SM CLR 18/M04 A3010 RMK AO2
 
KHWD - Hayward, California, USA
Distance from station: N 28mi, 44km
Updated: Wed, 20-Jan-2021 12:54pm MST
Clear
Clear
 Wind from W
Wind: W 7 mph , 11 km/h
Temperature: 61°F , 16°C
Dew Point: 27°F , -3°C
Humidity: 27%
Barometer: 30.11 inHg , 1019.6 hPa
Clouds: Clear
Visibility: 10 miles , 16 km
2021/01/20 19:54 KHWD 201954Z 26006KT 10SM CLR 16/M03 A3011 RMK AO2 SLP206 T01611033
KLVK - Livermore, California, USA
Distance from station: NNE 31mi, 51km
Updated: Wed, 20-Jan-2021 12:53pm MST
Clear
Clear
 Wind from calm
Wind: Calm
Temperature: 64°F , 18°C
Dew Point: 16°F , -9°C
Humidity: 15%
Barometer: 30.11 inHg , 1019.6 hPa
Clouds: Clear
Visibility: 10 miles , 16 km
2021/01/20 19:53 KLVK 201953Z 00000KT 10SM CLR 18/M09 A3011 RMK AO2 SLP194 T01781094